»·PEaware :: TPX573 KLAS-KONT

TPX573 :: KLAS-KONT

FLIGHT INFORMATION

Flight Status: Arrived
Operator: ATP Experience
More flights by this operator :: More flights under this callsign
Pilot: Dave P. (45)
Aircraft: BOEING 737-600
(B736)
More flights by this aircraft type
Origin: KLAS McCarran Intl
United States
Destination: KONT Ontario Intl
United States
More flights between these airports :: More routes between these airports
Route: +BOACH8 WHIGG FEYLA EAGLZ2
File this flight plan on PilotEdge
Remarks: PBN / A1B1C1D1S1S2 DOF / 181010 REG / N616SB OPR / TPX PER / C RMK / TCAS SIMBRIEF
Altitude:
(Current/Filed)
28,000ft
Speed:
(Current/Filed)
458kts
Departed: 09-Oct-18 05:32 PM
Arrived: 09-Oct-18 06:08 PM
Distance/Time
Traveled:
171nm/0:36
Distance/Time
To Go:
Arrived

Flight Plot

Page will automatically refresh every two minutes.

Flight plan parsing failed; only flown route is shown


Map Options




Map Legend


Flown Route
Filed Route
Departure Airport
Arrival Airport
Navaid (VOR, NDB)
Fix

Horizontal Profiles

Position Reports

Time Latitude Longitude Heading Altitude Ground
Speed
09-Oct-18 17:00 36.080314 -115.139108 316 2188ft 0kts
09-Oct-18 17:01 36.080314 -115.139108 316 2188ft 0kts
09-Oct-18 17:02 36.080314 -115.139108 316 2188ft 0kts
09-Oct-18 17:03 36.080314 -115.139108 316 2188ft 0kts
09-Oct-18 17:04 36.080314 -115.139108 316 2188ft 0kts
09-Oct-18 17:05 36.080314 -115.139108 316 2188ft 0kts
09-Oct-18 17:06 36.080314 -115.139108 316 2188ft 0kts
09-Oct-18 17:07 36.080314 -115.139108 316 2188ft 0kts
09-Oct-18 17:08 36.080314 -115.139108 316 2188ft 0kts
09-Oct-18 17:09 36.080314 -115.139108 316 2188ft 0kts
09-Oct-18 17:10 36.080314 -115.139108 316 2188ft 0kts
09-Oct-18 17:11 36.080314 -115.139108 316 2188ft 0kts
09-Oct-18 17:12 36.080314 -115.139108 316 2188ft 0kts
09-Oct-18 17:13 36.080314 -115.139108 316 2188ft 0kts
09-Oct-18 17:14 36.080314 -115.139108 316 2188ft 0kts
09-Oct-18 17:15 36.080314 -115.139108 316 2188ft 0kts
09-Oct-18 17:16 36.080314 -115.139108 316 2188ft 0kts
09-Oct-18 17:17 36.080314 -115.139108 316 2188ft 0kts
09-Oct-18 17:18 36.080314 -115.139108 316 2188ft 0kts
09-Oct-18 17:19 36.080314 -115.139108 316 2188ft 0kts
09-Oct-18 17:20 36.080314 -115.139108 316 2188ft 0kts
09-Oct-18 17:21 36.080314 -115.139108 316 2188ft 0kts
09-Oct-18 17:22 36.080314 -115.139108 316 2188ft 0kts
09-Oct-18 17:23 36.080314 -115.139108 316 2188ft 0kts
09-Oct-18 17:24 36.080314 -115.139108 316 2188ft 0kts
09-Oct-18 17:25 36.080055 -115.138807 316 2188ft 2kts
09-Oct-18 17:26 36.079799 -115.138509 316 2188ft 0kts
09-Oct-18 17:27 36.079799 -115.138509 316 2188ft 0kts
09-Oct-18 17:28 36.078946 -115.139416 227 2188ft 0kts
09-Oct-18 17:29 36.078421 -115.140044 183 2188ft 6kts
09-Oct-18 17:30 36.078294 -115.134321 90 2188ft 19kts
09-Oct-18 17:31 36.078262 -115.126791 90 2188ft 23kts
09-Oct-18 17:32 36.077558 -115.121712 131 2188ft 6kts
09-Oct-18 17:33 36.076350 -115.121698 268 2188ft 5kts
09-Oct-18 17:34 36.076548 -115.150732 268 2622ft 150kts
09-Oct-18 17:35 36.076788 -115.205277 266 4753ft 181kts
09-Oct-18 17:36 36.055313 -115.266827 202 6684ft 236kts
09-Oct-18 17:37 35.985638 -115.294897 201 7024ft 271kts
09-Oct-18 17:38 35.910375 -115.309035 187 9599ft 281kts
09-Oct-18 17:39 35.824607 -115.312521 176 11680ft 351kts
09-Oct-18 17:40 35.727532 -115.337381 218 14421ft 371kts
09-Oct-18 17:41 35.640296 -115.411466 220 17467ft 390kts
09-Oct-18 17:42 35.548789 -115.489060 220 19964ft 406kts
09-Oct-18 17:43 35.464217 -115.581387 234 22514ft 410kts
09-Oct-18 17:44 35.386566 -115.687227 234 24712ft 425kts
09-Oct-18 17:45 35.305502 -115.796101 234 26692ft 438kts
09-Oct-18 17:46 35.222203 -115.907440 234 27768ft 446kts
09-Oct-18 17:47 35.138529 -116.018777 233 27783ft 443kts
09-Oct-18 17:48 35.056300 -116.127420 233 25475ft 429kts
09-Oct-18 17:49 34.976596 -116.229564 228 23476ft 407kts
09-Oct-18 17:50 34.894027 -116.320925 228 21137ft 392kts
09-Oct-18 17:51 34.818182 -116.410545 230 19665ft 372kts
09-Oct-18 17:52 34.754250 -116.507736 240 18374ft 363kts
09-Oct-18 17:53 34.695844 -116.606417 239 17262ft 358kts
09-Oct-18 17:54 34.637741 -116.703973 238 16037ft 352kts
09-Oct-18 17:55 34.584121 -116.802247 245 14842ft 344kts
09-Oct-18 17:56 34.537123 -116.902505 236 13667ft 342kts
09-Oct-18 17:57 34.475381 -116.989031 230 11587ft 334kts
09-Oct-18 17:58 34.406954 -117.060494 217 10303ft 309kts
09-Oct-18 17:59 34.344245 -117.116804 216 9182ft 269kts
09-Oct-18 18:00 34.285628 -117.169317 216 9070ft 244kts
09-Oct-18 18:01 34.232841 -117.216646 216 9052ft 227kts
09-Oct-18 18:02 34.186740 -117.258081 216 8197ft 198kts
09-Oct-18 18:03 34.142391 -117.295572 211 6732ft 192kts
09-Oct-18 18:04 34.098149 -117.330466 213 5277ft 188kts
09-Oct-18 18:05 34.059002 -117.369671 250 3992ft 185kts
09-Oct-18 18:06 34.054276 -117.429842 267 3415ft 169kts
09-Oct-18 18:07 34.054375 -117.485036 268 2527ft 160kts
09-Oct-18 18:08 34.054597 -117.534494 268 1731ft 132kts
09-Oct-18 18:09 34.054793 -117.577402 268 1060ft 125kts
09-Oct-18 18:10 34.055500 -117.599655 331 951ft 7kts
09-Oct-18 18:11 34.055994 -117.599864 356 951ft 0kts
09-Oct-18 18:12 34.059001 -117.599887 347 951ft 7kts
09-Oct-18 18:13 34.059832 -117.599829 36 951ft 0kts
09-Oct-18 18:14 34.059832 -117.599829 36 951ft 0kts
09-Oct-18 18:15 34.059832 -117.599829 36 951ft 0kts
09-Oct-18 18:16 34.059832 -117.599829 36 951ft 0kts
09-Oct-18 18:17 34.059832 -117.599829 36 951ft 0kts
09-Oct-18 18:18 34.059832 -117.599829 36 951ft 0kts
09-Oct-18 18:19 34.059832 -117.599829 36 951ft 0kts
09-Oct-18 18:20 34.059832 -117.599829 36 951ft 0kts
09-Oct-18 18:21 34.059832 -117.599829 36 951ft 0kts
09-Oct-18 18:22 34.059832 -117.599829 36 951ft 0kts
09-Oct-18 18:23 34.059832 -117.599829 36 951ft 0kts
09-Oct-18 18:24 34.059832 -117.599829 36 951ft 0kts
09-Oct-18 18:25 34.059832 -117.599829 36 951ft 0kts

Navigation Log

Ident Type
Flight plan parsing failed, navigation log unavailable